PWSweather.com
Personal Weather Stations
Station Observations
SHAHALMS1
Eftra, Falkenberg, HA

EftraFalkenberg, HA

Lat: 56.85, Lon: 12.65

Elevation: 140

Station Type:

http://hem.passagen.se/risarp101

High Low Average
Temperature 59.2°F15.1°C 45.7°F7.6°C 51.2°F10.7°C
Dew Point 49.3°F9.6°C 39.9°F4.4°C 45.1°F7.3°C
Winds 5.9 mph 9.5 kmh Calm Calm 2.0 mph S3.2 kmh S
Wind Gusts 11.8 mph19.0 kmh -- 5.0 mph8.0 kmh
Humidity 88% 67% 80%
Pressure 30.01 in1016.3 mb 29.83 in1010.2 mb -
Precipitation 0.00 in0.0 mm - -
Hour Temp Dew Point Humidity Winds Wind Gusts Pressure Precip Precip Rate Daily Precip Total
12:00 AM 48.4°F9.1°C 44.7°F7.1°C 87% 0.9 mph S1.4 kmh S 5.0 mph8.0 kmh 29.86 in1011.2 mb 0.00 in0.0 mm 0.00 in0.0 mm 0.00 in0.0 mm
12:15 AM 48.4°F9.1°C 44.7°F7.1°C 87% 0.2 mph S0.3 kmh S 3.2 mph5.1 kmh 29.86 in1011.2 mb 0.00 in0.0 mm 0.00 in0.0 mm 0.00 in0.0 mm
12:30 AM 48.2°F9.0°C 44.5°F6.9°C 87% Calm Calm -- 29.86 in1011.2 mb 0.00 in0.0 mm 0.00 in0.0 mm 0.00 in0.0 mm
12:45 AM 48.2°F9.0°C 44.5°F6.9°C 87% 0.4 mph S0.6 kmh S 4.7 mph7.6 kmh 29.86 in1011.2 mb 0.00 in0.0 mm 0.00 in0.0 mm 0.00 in0.0 mm
01:00 AM 48.0°F8.9°C 44.3°F6.8°C 87% 1.5 mph S2.4 kmh S 6.8 mph10.9 kmh 29.86 in1011.2 mb 0.00 in0.0 mm 0.00 in0.0 mm 0.00 in0.0 mm
01:15 AM 48.0°F8.9°C 44.3°F6.8°C 87% 1.6 mph S2.6 kmh S 7.5 mph12.1 kmh 29.86 in1011.2 mb 0.00 in0.0 mm 0.00 in0.0 mm 0.00 in0.0 mm
01:30 AM 47.8°F8.8°C 44.2°F6.8°C 87% 0.8 mph S1.3 kmh S 4.3 mph6.9 kmh 29.86 in1011.2 mb 0.00 in0.0 mm 0.00 in0.0 mm 0.00 in0.0 mm
01:45 AM 47.8°F8.8°C 44.2°F6.8°C 87% 1.0 mph S1.6 kmh S 6.4 mph10.3 kmh 29.86 in1011.2 mb 0.00 in0.0 mm 0.00 in0.0 mm 0.00 in0.0 mm
02:00 AM 47.7°F8.7°C 44.0°F6.7°C 87% 2.0 mph S3.2 kmh S 6.4 mph10.3 kmh 29.86 in1011.2 mb 0.00 in0.0 mm 0.00 in0.0 mm 0.00 in0.0 mm
02:15 AM 47.7°F8.7°C 44.0°F6.7°C 87% Calm Calm -- 29.86 in1011.2 mb 0.00 in0.0 mm 0.00 in0.0 mm 0.00 in0.0 mm
02:30 AM 47.7°F8.7°C 44.0°F6.7°C 87% 0.6 mph S1.0 kmh S 4.7 mph7.6 kmh 29.86 in1011.2 mb 0.00 in0.0 mm 0.00 in0.0 mm 0.00 in0.0 mm
02:45 AM 47.7°F8.7°C 44.0°F6.7°C 87% 0.1 mph S0.2 kmh S 1.8 mph2.9 kmh 29.86 in1011.2 mb 0.00 in0.0 mm 0.00 in0.0 mm 0.00 in0.0 mm
03:00 AM 47.5°F8.6°C 43.8°F6.6°C 87% Calm Calm -- 29.86 in1011.2 mb 0.00 in0.0 mm 0.00 in0.0 mm 0.00 in0.0 mm
03:15 AM 47.5°F8.6°C 43.8°F6.6°C 87% Calm Calm -- 29.83 in1010.2 mb 0.00 in0.0 mm 0.00 in0.0 mm 0.00 in0.0 mm
03:30 AM 47.5°F8.6°C 43.8°F6.6°C 87% Calm Calm -- 29.83 in1010.2 mb 0.00 in0.0 mm 0.00 in0.0 mm 0.00 in0.0 mm
03:45 AM 47.5°F8.6°C 43.8°F6.6°C 87% Calm Calm -- 29.86 in1011.2 mb 0.00 in0.0 mm 0.00 in0.0 mm 0.00 in0.0 mm
04:00 AM 47.5°F8.6°C 43.8°F6.6°C 87% Calm Calm -- 29.86 in1011.2 mb 0.00 in0.0 mm 0.00 in0.0 mm 0.00 in0.0 mm
04:15 AM 47.3°F8.5°C 43.6°F6.4°C 87% Calm Calm -- 29.86 in1011.2 mb 0.00 in0.0 mm 0.00 in0.0 mm 0.00 in0.0 mm
04:30 AM 47.3°F8.5°C 43.6°F6.4°C 87% Calm Calm -- 29.86 in1011.2 mb 0.00 in0.0 mm 0.00 in0.0 mm 0.00 in0.0 mm
04:45 AM 47.3°F8.5°C 43.6°F6.4°C 87% Calm Calm -- 29.86 in1011.2 mb 0.00 in0.0 mm 0.00 in0.0 mm 0.00 in0.0 mm
05:00 AM 47.3°F8.5°C 43.6°F6.4°C 87% Calm Calm -- 29.83 in1010.2 mb 0.00 in0.0 mm 0.00 in0.0 mm 0.00 in0.0 mm
05:15 AM 47.3°F8.5°C 43.6°F6.4°C 87% 0.2 mph E0.3 kmh E 5.7 mph9.2 kmh 29.83 in1010.2 mb 0.00 in0.0 mm 0.00 in0.0 mm 0.00 in0.0 mm
05:30 AM 47.3°F8.5°C 43.6°F6.4°C 87% 0.2 mph SE0.3 kmh SE 3.9 mph6.3 kmh 29.83 in1010.2 mb 0.00 in0.0 mm 0.00 in0.0 mm 0.00 in0.0 mm
05:45 AM 47.3°F8.5°C 43.9°F6.6°C 88% Calm Calm -- 29.86 in1011.2 mb 0.00 in0.0 mm 0.00 in0.0 mm 0.00 in0.0 mm
06:00 AM 47.7°F8.7°C 44.3°F6.8°C 88% Calm Calm -- 29.86 in1011.2 mb 0.00 in0.0 mm 0.00 in0.0 mm 0.00 in0.0 mm
06:15 AM 47.8°F8.8°C 44.5°F6.9°C 88% Calm Calm -- 29.86 in1011.2 mb 0.00 in0.0 mm 0.00 in0.0 mm 0.00 in0.0 mm
06:30 AM 48.2°F9.0°C 44.8°F7.1°C 88% Calm Calm -- 29.86 in1011.2 mb 0.00 in0.0 mm 0.00 in0.0 mm 0.00 in0.0 mm
06:45 AM 48.6°F9.2°C 45.2°F7.3°C 88% Calm Calm -- 29.86 in1011.2 mb 0.00 in0.0 mm 0.00 in0.0 mm 0.00 in0.0 mm
07:00 AM 48.9°F9.4°C 45.2°F7.3°C 87% Calm Calm -- 29.86 in1011.2 mb 0.00 in0.0 mm 0.00 in0.0 mm 0.00 in0.0 mm
07:15 AM 49.5°F9.7°C 45.8°F7.7°C 87% Calm Calm -- 29.86 in1011.2 mb 0.00 in0.0 mm 0.00 in0.0 mm 0.00 in0.0 mm
07:30 AM 49.6°F9.8°C 45.9°F7.7°C 87% 0.1 mph NE0.2 kmh NE 1.8 mph2.9 kmh 29.86 in1011.2 mb 0.00 in0.0 mm 0.00 in0.0 mm 0.00 in0.0 mm
07:45 AM 49.8°F9.9°C 46.1°F7.8°C 87% Calm Calm -- 29.86 in1011.2 mb 0.00 in0.0 mm 0.00 in0.0 mm 0.00 in0.0 mm
08:00 AM 50.5°F10.3°C 46.5°F8.1°C 86% Calm Calm -- 29.86 in1011.2 mb 0.00 in0.0 mm 0.00 in0.0 mm 0.00 in0.0 mm
08:15 AM 50.7°F10.4°C 46.4°F8.0°C 85% 0.2 mph E0.3 kmh E 4.3 mph6.9 kmh 29.86 in1011.2 mb 0.00 in0.0 mm 0.00 in0.0 mm 0.00 in0.0 mm
08:30 AM 50.2°F10.1°C 45.5°F7.5°C 84% Calm Calm -- 29.86 in1011.2 mb 0.00 in0.0 mm 0.00 in0.0 mm 0.00 in0.0 mm
08:45 AM 49.8°F9.9°C 45.2°F7.3°C 84% 0.3 mph W0.5 kmh W 3.6 mph5.8 kmh 29.86 in1011.2 mb 0.00 in0.0 mm 0.00 in0.0 mm 0.00 in0.0 mm
09:00 AM 49.5°F9.7°C 44.8°F7.1°C 84% 2.8 mph W4.5 kmh W 7.5 mph12.1 kmh 29.86 in1011.2 mb 0.00 in0.0 mm 0.00 in0.0 mm 0.00 in0.0 mm
09:15 AM 49.3°F9.6°C 44.6°F7.0°C 84% 2.3 mph W3.7 kmh W 6.1 mph9.8 kmh 29.89 in1012.2 mb 0.00 in0.0 mm 0.00 in0.0 mm 0.00 in0.0 mm
09:30 AM 49.8°F9.9°C 45.5°F7.5°C 85% 0.2 mph SW0.3 kmh SW 3.6 mph5.8 kmh 29.86 in1011.2 mb 0.00 in0.0 mm 0.00 in0.0 mm 0.00 in0.0 mm
09:45 AM 50.4°F10.2°C 45.7°F7.6°C 84% 0.7 mph NW1.1 kmh NW 4.3 mph6.9 kmh 29.86 in1011.2 mb 0.00 in0.0 mm 0.00 in0.0 mm 0.00 in0.0 mm
10:00 AM 51.3°F10.7°C 46.6°F8.1°C 84% 1.4 mph N2.3 kmh N 6.8 mph10.9 kmh 29.89 in1012.2 mb 0.00 in0.0 mm 0.00 in0.0 mm 0.00 in0.0 mm
10:15 AM 52.0°F11.1°C 47.0°F8.3°C 83% 0.2 mph N0.3 kmh N 4.7 mph7.6 kmh 29.89 in1012.2 mb 0.00 in0.0 mm 0.00 in0.0 mm 0.00 in0.0 mm
10:30 AM 53.4°F11.9°C 48.4°F9.1°C 83% 2.9 mph NNE4.7 kmh NNE 8.9 mph14.3 kmh 29.89 in1012.2 mb 0.00 in0.0 mm 0.00 in0.0 mm 0.00 in0.0 mm
10:45 AM 54.1°F12.3°C 48.4°F9.1°C 81% 2.6 mph N4.2 kmh N 9.7 mph15.6 kmh 29.89 in1012.2 mb 0.00 in0.0 mm 0.00 in0.0 mm 0.00 in0.0 mm
11:00 AM 54.0°F12.2°C 47.9°F8.8°C 80% 1.6 mph N2.6 kmh N 5.7 mph9.2 kmh 29.89 in1012.2 mb 0.00 in0.0 mm 0.00 in0.0 mm 0.00 in0.0 mm
11:15 AM 54.5°F12.5°C 47.8°F8.8°C 78% 2.7 mph N4.3 kmh N 9.7 mph15.6 kmh 29.89 in1012.2 mb 0.00 in0.0 mm 0.00 in0.0 mm 0.00 in0.0 mm
11:30 AM 54.5°F12.5°C 47.8°F8.8°C 78% 3.7 mph N6.0 kmh N 8.6 mph13.8 kmh 29.89 in1012.2 mb 0.00 in0.0 mm 0.00 in0.0 mm 0.00 in0.0 mm
11:45 AM 55.4°F13.0°C 48.3°F9.1°C 77% 0.6 mph WSW1.0 kmh WSW 6.1 mph9.8 kmh 29.89 in1012.2 mb 0.00 in0.0 mm 0.00 in0.0 mm 0.00 in0.0 mm
12:00 PM 55.6°F13.1°C 48.5°F9.2°C 77% 3.9 mph W6.3 kmh W 8.6 mph13.8 kmh 29.89 in1012.2 mb 0.00 in0.0 mm 0.00 in0.0 mm 0.00 in0.0 mm
12:15 PM 56.1°F13.4°C 48.7°F9.3°C 76% 3.6 mph W5.8 kmh W 8.6 mph13.8 kmh 29.89 in1012.2 mb 0.00 in0.0 mm 0.00 in0.0 mm 0.00 in0.0 mm
12:30 PM 56.7°F13.7°C 48.8°F9.3°C 75% 2.5 mph NNW4.0 kmh NNW 7.2 mph11.6 kmh 29.92 in1013.2 mb 0.00 in0.0 mm 0.00 in0.0 mm 0.00 in0.0 mm
12:45 PM 57.0°F13.9°C 48.8°F9.3°C 74% 0.6 mph N1.0 kmh N 5.0 mph8.0 kmh 29.89 in1012.2 mb 0.00 in0.0 mm 0.00 in0.0 mm 0.00 in0.0 mm
01:00 PM 57.0°F13.9°C 48.4°F9.1°C 73% 1.9 mph NW3.1 kmh NW 6.1 mph9.8 kmh 29.89 in1012.2 mb 0.00 in0.0 mm 0.00 in0.0 mm 0.00 in0.0 mm
01:15 PM 57.9°F14.4°C 48.9°F9.4°C 72% 0.7 mph NW1.1 kmh NW 6.8 mph10.9 kmh 29.89 in1012.2 mb 0.00 in0.0 mm 0.00 in0.0 mm 0.00 in0.0 mm
01:30 PM 58.3°F14.6°C 49.3°F9.6°C 72% 3.4 mph NW5.5 kmh NW 8.6 mph13.8 kmh 29.92 in1013.2 mb 0.00 in0.0 mm 0.00 in0.0 mm 0.00 in0.0 mm
01:45 PM 59.0°F15.0°C 49.2°F9.6°C 70% 1.3 mph NW2.1 kmh NW 5.7 mph9.2 kmh 29.92 in1013.2 mb 0.00 in0.0 mm 0.00 in0.0 mm 0.00 in0.0 mm
02:00 PM 59.2°F15.1°C 49.0°F9.4°C 69% 3.8 mph W6.1 kmh W 11.8 mph19.0 kmh 29.92 in1013.2 mb 0.00 in0.0 mm 0.00 in0.0 mm 0.00 in0.0 mm
02:15 PM 58.1°F14.5°C 48.0°F8.9°C 69% 5.9 mph W9.5 kmh W 11.8 mph19.0 kmh 29.92 in1013.2 mb 0.00 in0.0 mm 0.00 in0.0 mm 0.00 in0.0 mm
02:30 PM 57.6°F14.2°C 47.5°F8.6°C 69% 5.0 mph W8.0 kmh W 8.9 mph14.3 kmh 29.92 in1013.2 mb 0.00 in0.0 mm 0.00 in0.0 mm 0.00 in0.0 mm
02:45 PM 57.4°F14.1°C 47.7°F8.7°C 70% 4.6 mph W7.4 kmh W 7.9 mph12.7 kmh 29.92 in1013.2 mb 0.00 in0.0 mm 0.00 in0.0 mm 0.00 in0.0 mm
03:00 PM 57.6°F14.2°C 47.8°F8.8°C 70% 3.1 mph W5.0 kmh W 6.8 mph10.9 kmh 29.92 in1013.2 mb 0.00 in0.0 mm 0.00 in0.0 mm 0.00 in0.0 mm
03:15 PM 58.1°F14.5°C 48.4°F9.1°C 70% 4.0 mph WSW6.4 kmh WSW 8.9 mph14.3 kmh 29.92 in1013.2 mb 0.00 in0.0 mm 0.00 in0.0 mm 0.00 in0.0 mm
03:30 PM 58.3°F14.6°C 48.2°F9.0°C 69% 4.0 mph W6.4 kmh W 8.6 mph13.8 kmh 29.92 in1013.2 mb 0.00 in0.0 mm 0.00 in0.0 mm 0.00 in0.0 mm
03:45 PM 59.0°F15.0°C 48.8°F9.3°C 69% 3.4 mph W5.5 kmh W 6.8 mph10.9 kmh 29.89 in1012.2 mb 0.00 in0.0 mm 0.00 in0.0 mm 0.00 in0.0 mm
04:00 PM 58.6°F14.8°C 48.1°F8.9°C 68% 2.7 mph W4.3 kmh W 6.1 mph9.8 kmh 29.92 in1013.2 mb 0.00 in0.0 mm 0.00 in0.0 mm 0.00 in0.0 mm
04:15 PM 59.0°F15.0°C 48.4°F9.1°C 68% 2.2 mph W3.5 kmh W 6.1 mph9.8 kmh 29.92 in1013.2 mb 0.00 in0.0 mm 0.00 in0.0 mm 0.00 in0.0 mm
04:30 PM 58.5°F14.7°C 47.5°F8.6°C 67% 1.4 mph W2.3 kmh W 5.7 mph9.2 kmh 29.92 in1013.2 mb 0.00 in0.0 mm 0.00 in0.0 mm 0.00 in0.0 mm
04:45 PM 58.5°F14.7°C 47.5°F8.6°C 67% 0.4 mph WNW0.6 kmh WNW 5.0 mph8.0 kmh 29.92 in1013.2 mb 0.00 in0.0 mm 0.00 in0.0 mm 0.00 in0.0 mm
05:15 PM 58.3°F14.6°C 47.8°F8.8°C 68% 4.5 mph W7.2 kmh W 10.4 mph16.7 kmh 29.92 in1013.2 mb 0.00 in0.0 mm 0.00 in0.0 mm 0.00 in0.0 mm
05:30 PM 58.1°F14.5°C 47.6°F8.7°C 68% 4.5 mph W7.2 kmh W 9.7 mph15.6 kmh 29.95 in1014.2 mb 0.00 in0.0 mm 0.00 in0.0 mm 0.00 in0.0 mm
05:45 PM 57.7°F14.3°C 47.2°F8.4°C 68% 4.1 mph WSW6.6 kmh WSW 7.5 mph12.1 kmh 29.92 in1013.2 mb 0.00 in0.0 mm 0.00 in0.0 mm 0.00 in0.0 mm
06:00 PM 57.2°F14.0°C 46.7°F8.2°C 68% 1.8 mph W2.9 kmh W 5.4 mph8.7 kmh 29.92 in1013.2 mb 0.00 in0.0 mm 0.00 in0.0 mm 0.00 in0.0 mm
06:15 PM 55.9°F13.3°C 45.9°F7.7°C 69% 2.9 mph W4.7 kmh W 6.4 mph10.3 kmh 29.92 in1013.2 mb 0.00 in0.0 mm 0.00 in0.0 mm 0.00 in0.0 mm
06:30 PM 54.9°F12.7°C 45.3°F7.4°C 70% 3.6 mph W5.8 kmh W 5.7 mph9.2 kmh 29.92 in1013.2 mb 0.00 in0.0 mm 0.00 in0.0 mm 0.00 in0.0 mm
06:45 PM 53.6°F12.0°C 44.8°F7.1°C 72% 3.8 mph W6.1 kmh W 4.7 mph7.6 kmh 29.92 in1013.2 mb 0.00 in0.0 mm 0.00 in0.0 mm 0.00 in0.0 mm
07:00 PM 52.5°F11.4°C 44.1°F6.7°C 73% 3.8 mph W6.1 kmh W 4.7 mph7.6 kmh 29.92 in1013.2 mb 0.00 in0.0 mm 0.00 in0.0 mm 0.00 in0.0 mm
07:15 PM 50.9°F10.5°C 43.3°F6.3°C 75% 5.2 mph W8.4 kmh W 6.4 mph10.3 kmh 29.95 in1014.2 mb 0.00 in0.0 mm 0.00 in0.0 mm 0.00 in0.0 mm
07:30 PM 49.8°F9.9°C 42.9°F6.1°C 77% 5.2 mph W8.4 kmh W 6.4 mph10.3 kmh 29.95 in1014.2 mb 0.00 in0.0 mm 0.00 in0.0 mm 0.00 in0.0 mm
07:45 PM 49.1°F9.5°C 42.2°F5.7°C 77% 5.2 mph W8.4 kmh W 6.4 mph10.3 kmh 29.95 in1014.2 mb 0.00 in0.0 mm 0.00 in0.0 mm 0.00 in0.0 mm
08:00 PM 48.0°F8.9°C 41.2°F5.1°C 77% 5.2 mph W8.4 kmh W 6.4 mph10.3 kmh 29.95 in1014.2 mb 0.00 in0.0 mm 0.00 in0.0 mm 0.00 in0.0 mm
08:15 PM 47.5°F8.6°C 41.0°F5.0°C 78% 5.2 mph W8.4 kmh W 6.4 mph10.3 kmh 29.95 in1014.2 mb 0.00 in0.0 mm 0.00 in0.0 mm 0.00 in0.0 mm
08:30 PM 47.3°F8.5°C 41.1°F5.1°C 79% 5.2 mph W8.4 kmh W 6.4 mph10.3 kmh 29.98 in1015.2 mb 0.00 in0.0 mm 0.00 in0.0 mm 0.00 in0.0 mm
08:45 PM 47.1°F8.4°C 40.9°F4.9°C 79% 5.2 mph W8.4 kmh W 6.4 mph10.3 kmh 29.98 in1015.2 mb 0.00 in0.0 mm 0.00 in0.0 mm 0.00 in0.0 mm
09:00 PM 47.1°F8.4°C 41.3°F5.2°C 80% 5.2 mph W8.4 kmh W 6.4 mph10.3 kmh 29.95 in1014.2 mb 0.00 in0.0 mm 0.00 in0.0 mm 0.00 in0.0 mm
09:15 PM 46.8°F8.2°C 40.9°F4.9°C 80% 5.2 mph W8.4 kmh W 6.4 mph10.3 kmh 29.95 in1014.2 mb 0.00 in0.0 mm 0.00 in0.0 mm 0.00 in0.0 mm
09:30 PM 46.0°F7.8°C 40.2°F4.6°C 80% 5.2 mph W8.4 kmh W 6.4 mph10.3 kmh 29.98 in1015.2 mb 0.00 in0.0 mm 0.00 in0.0 mm 0.00 in0.0 mm
09:45 PM 45.7°F7.6°C 39.9°F4.4°C 80% 5.2 mph W8.4 kmh W 6.4 mph10.3 kmh 29.98 in1015.2 mb 0.00 in0.0 mm 0.00 in0.0 mm 0.00 in0.0 mm
10:00 PM 46.0°F7.8°C 40.9°F4.9°C 82% 5.2 mph W8.4 kmh W 6.4 mph10.3 kmh 29.98 in1015.2 mb 0.00 in0.0 mm 0.00 in0.0 mm 0.00 in0.0 mm
10:15 PM 46.2°F7.9°C 41.0°F5.0°C 82% 5.2 mph W8.4 kmh W 6.4 mph10.3 kmh 29.98 in1015.2 mb 0.00 in0.0 mm 0.00 in0.0 mm 0.00 in0.0 mm
10:30 PM 46.8°F8.2°C 41.9°F5.5°C 83% 5.2 mph W8.4 kmh W 6.4 mph10.3 kmh 30.01 in1016.3 mb 0.00 in0.0 mm 0.00 in0.0 mm 0.00 in0.0 mm
10:45 PM 46.4°F8.0°C 41.2°F5.1°C 82% 0.3 mph E0.5 kmh E 5.7 mph9.2 kmh 29.98 in1015.2 mb 0.00 in0.0 mm 0.00 in0.0 mm 0.00 in0.0 mm
11:00 PM 45.9°F7.7°C 40.7°F4.8°C 82% 4.8 mph ESE7.7 kmh ESE 7.9 mph12.7 kmh 29.98 in1015.2 mb 0.00 in0.0 mm 0.00 in0.0 mm 0.00 in0.0 mm
11:15 PM 46.0°F7.8°C 41.2°F5.1°C 83% Calm Calm -- 29.98 in1015.2 mb 0.00 in0.0 mm 0.00 in0.0 mm 0.00 in0.0 mm
11:30 PM 46.6°F8.1°C 42.0°F5.6°C 84% Calm Calm -- 29.95 in1014.2 mb 0.00 in0.0 mm 0.00 in0.0 mm 0.00 in0.0 mm
11:45 PM 46.8°F8.2°C 42.2°F5.7°C 84% Calm Calm -- 29.95 in1014.2 mb 0.00 in0.0 mm 0.00 in0.0 mm 0.00 in0.0 mm